createdAt,value
2018-08-31T00:01:04.388Z,100626.17
2018-08-31T00:05:57.019Z,100623.72
2018-08-31T00:08:49.356Z,100622.00
2018-08-31T00:11:50.561Z,100617.69
2018-08-31T00:14:21.537Z,100630.69
2018-08-31T00:16:52.503Z,100625.72
2018-08-31T00:19:23.533Z,100628.82
2018-08-31T00:21:54.475Z,100623.61
2018-08-31T00:24:48.437Z,100622.63
2018-08-31T00:27:42.485Z,100621.05
2018-08-31T00:30:36.773Z,100628.23
2018-08-31T00:33:47.397Z,100625.84
2018-08-31T00:38:44.191Z,100621.99
2018-08-31T00:42:00.533Z,100622.11
2018-08-31T00:45:38.291Z,100628.41
2018-08-31T00:48:09.423Z,100630.59
2018-08-31T00:50:40.466Z,100627.17
2018-08-31T00:53:11.505Z,100623.33
2018-08-31T00:55:42.481Z,100624.48
2018-08-31T00:58:13.460Z,100624.02
2018-08-31T01:00:46.252Z,100623.14
2018-08-31T01:03:17.493Z,100623.42
2018-08-31T01:05:48.473Z,100620.75
2018-08-31T01:08:19.523Z,100618.55
2018-08-31T01:10:50.512Z,100616.13
2018-08-31T01:13:21.458Z,100611.98
2018-08-31T01:15:52.479Z,100613.82
2018-08-31T01:18:23.467Z,100615.79
2018-08-31T01:20:54.497Z,100620.60
2018-08-31T01:23:25.468Z,100613.28
2018-08-31T01:25:56.501Z,100610.95
2018-08-31T01:28:27.509Z,100623.84
2018-08-31T01:30:58.493Z,100618.33
2018-08-31T01:33:29.505Z,100608.28
2018-08-31T01:36:00.529Z,100607.07
2018-08-31T01:38:31.513Z,100608.55
2018-08-31T01:41:02.495Z,100600.78
2018-08-31T01:43:33.461Z,100602.59
2018-08-31T01:46:04.437Z,100593.25
2018-08-31T01:48:35.517Z,100592.88
2018-08-31T01:51:11.781Z,100589.37
2018-08-31T01:53:42.593Z,100590.22
2018-08-31T01:56:13.481Z,100586.70
2018-08-31T01:58:44.605Z,100592.86
2018-08-31T02:01:15.481Z,100590.22
2018-08-31T02:03:46.500Z,100586.83
2018-08-31T02:06:17.521Z,100589.37
2018-08-31T02:08:53.613Z,100590.30
2018-08-31T02:11:24.508Z,100587.36
2018-08-31T02:13:55.477Z,100594.70
2018-08-31T02:16:26.494Z,100593.36
2018-08-31T02:18:57.582Z,100594.59
2018-08-31T02:21:28.499Z,100591.89
2018-08-31T02:23:59.604Z,100596.68
2018-08-31T02:26:30.561Z,100590.95
2018-08-31T02:29:02.305Z,100596.68
2018-08-31T02:31:33.400Z,100592.89
2018-08-31T02:34:04.474Z,100590.50
2018-08-31T02:36:35.489Z,100590.64
2018-08-31T02:39:08.344Z,100591.44
2018-08-31T02:41:39.366Z,100589.48
2018-08-31T02:44:10.389Z,100584.63
2018-08-31T02:46:41.449Z,100579.23
2018-08-31T02:49:12.493Z,100580.53
2018-08-31T02:51:43.502Z,100587.04
2018-08-31T02:54:14.482Z,100575.06
2018-08-31T02:56:45.521Z,100568.42
2018-08-31T02:59:16.492Z,100570.45
2018-08-31T03:01:47.473Z,100563.87
2018-08-31T03:04:18.688Z,100571.96
2018-08-31T03:06:49.641Z,100570.08
2018-08-31T03:09:20.506Z,100562.73
2018-08-31T03:11:51.492Z,100568.98
2018-08-31T03:14:22.490Z,100570.13
2018-08-31T03:16:53.489Z,100566.40
2018-08-31T03:19:24.498Z,100571.64
2018-08-31T03:21:55.535Z,100564.77
2018-08-31T03:24:26.498Z,100566.22
2018-08-31T03:26:57.500Z,100558.64
2018-08-31T03:29:28.482Z,100561.01
2018-08-31T03:31:59.510Z,100559.89
2018-08-31T03:34:30.477Z,100561.71
2018-08-31T03:37:01.507Z,100570.91
2018-08-31T03:39:32.443Z,100567.80
2018-08-31T03:42:03.504Z,100573.83
2018-08-31T03:44:34.518Z,100569.77
2018-08-31T03:47:05.510Z,100570.50
2018-08-31T03:49:36.470Z,100569.91
2018-08-31T03:52:07.526Z,100570.98
2018-08-31T03:54:38.477Z,100574.67
2018-08-31T03:57:09.630Z,100566.36
2018-08-31T03:59:40.505Z,100575.59
2018-08-31T04:02:11.485Z,100571.83
2018-08-31T04:04:42.505Z,100584.27
2018-08-31T04:07:13.635Z,100573.56
2018-08-31T04:09:45.278Z,100575.86
2018-08-31T04:12:15.407Z,100575.94
2018-08-31T04:14:46.508Z,100585.05
2018-08-31T04:17:17.522Z,100581.88
2018-08-31T04:19:48.532Z,100586.37
2018-08-31T04:22:19.500Z,100586.78
2018-08-31T04:24:50.493Z,100585.61
2018-08-31T04:27:21.482Z,100585.49
2018-08-31T04:29:52.504Z,100585.38
2018-08-31T04:32:23.478Z,100596.61
2018-08-31T04:34:54.492Z,100591.84
2018-08-31T04:37:25.518Z,100586.45
2018-08-31T04:39:56.522Z,100589.63
2018-08-31T04:42:27.499Z,100588.27
2018-08-31T04:44:58.471Z,100597.23
2018-08-31T04:47:29.498Z,100600.41
2018-08-31T04:50:00.481Z,100596.13
2018-08-31T04:52:31.568Z,100604.55
2018-08-31T04:55:02.491Z,100598.85
2018-08-31T04:57:33.505Z,100602.77
2018-08-31T05:00:04.521Z,100603.52
2018-08-31T05:02:35.544Z,100603.36
2018-08-31T05:05:06.505Z,100598.45
2018-08-31T05:07:37.517Z,100600.19
2018-08-31T05:10:08.522Z,100600.97
2018-08-31T05:12:39.520Z,100607.35
2018-08-31T05:15:10.473Z,100601.78
2018-08-31T05:17:41.611Z,100601.63
2018-08-31T05:20:12.569Z,100598.76
2018-08-31T05:22:43.546Z,100596.72
2018-08-31T05:25:14.479Z,100602.52
2018-08-31T05:27:45.512Z,100603.93
2018-08-31T05:30:16.484Z,100601.89
2018-08-31T05:32:47.489Z,100602.64
2018-08-31T05:35:18.497Z,100600.98
2018-08-31T05:37:49.545Z,100602.05
2018-08-31T05:40:21.530Z,100601.34
2018-08-31T05:42:52.518Z,100608.40
2018-08-31T05:45:23.588Z,100593.37
2018-08-31T05:47:54.579Z,100604.82
2018-08-31T05:50:25.538Z,100603.86
2018-08-31T05:52:56.471Z,100601.75
2018-08-31T05:55:27.483Z,100607.29
2018-08-31T05:57:58.530Z,100609.58
2018-08-31T06:00:29.660Z,100619.19
2018-08-31T06:03:00.544Z,100622.25
2018-08-31T06:05:31.482Z,100624.69
2018-08-31T06:08:02.504Z,100624.62
2018-08-31T06:10:33.545Z,100628.98
2018-08-31T06:13:04.493Z,100626.34
2018-08-31T06:15:35.507Z,100626.64
2018-08-31T06:18:06.510Z,100626.31
2018-08-31T06:20:37.512Z,100631.18
2018-08-31T06:23:08.563Z,100629.00
2018-08-31T06:25:39.526Z,100633.39
2018-08-31T06:28:10.514Z,100632.34
2018-08-31T06:30:41.582Z,100626.81
2018-08-31T06:33:12.538Z,100632.03
2018-08-31T06:35:43.650Z,100628.10
2018-08-31T06:38:14.590Z,100632.18
2018-08-31T06:40:45.592Z,100635.09
2018-08-31T06:43:16.516Z,100634.98
2018-08-31T06:45:47.481Z,100633.37
2018-08-31T06:48:18.461Z,100636.86
2018-08-31T06:50:49.551Z,100632.86
2018-08-31T06:53:20.478Z,100631.45
2018-08-31T06:55:51.510Z,100624.67
2018-08-31T06:58:22.505Z,100626.44
2018-08-31T07:00:53.490Z,100631.84
2018-08-31T07:03:24.486Z,100628.41
2018-08-31T07:05:56.277Z,100629.20
2018-08-31T07:08:27.366Z,100621.64
2018-08-31T07:10:58.510Z,100636.56
2018-08-31T07:13:29.669Z,100632.73
2018-08-31T07:16:00.537Z,100631.78
2018-08-31T07:18:31.523Z,100634.13
2018-08-31T07:21:02.469Z,100634.34
2018-08-31T07:23:33.485Z,100635.83
2018-08-31T07:26:04.474Z,100639.40
2018-08-31T07:28:35.546Z,100633.80
2018-08-31T07:31:06.746Z,100636.47
2018-08-31T07:33:37.558Z,100631.44
2018-08-31T07:36:08.524Z,100631.16
2018-08-31T07:38:40.392Z,100641.25
2018-08-31T07:41:11.507Z,100636.09
2018-08-31T07:43:42.551Z,100640.45
2018-08-31T07:46:13.570Z,100635.72
2018-08-31T07:48:44.519Z,100631.74
2018-08-31T07:51:15.505Z,100632.46
2018-08-31T07:53:46.595Z,100628.41
2018-08-31T07:56:17.485Z,100631.81
2018-08-31T07:58:48.530Z,100621.92
2018-08-31T08:01:19.531Z,100624.19
2018-08-31T08:03:50.547Z,100628.84
2018-08-31T08:06:21.490Z,100627.92
2018-08-31T08:08:52.494Z,100635.39
2018-08-31T08:11:23.630Z,100627.33
2018-08-31T08:13:54.602Z,100627.76
2018-08-31T08:16:25.510Z,100632.12
2018-08-31T08:18:56.498Z,100631.09
2018-08-31T08:21:27.498Z,100631.64
2018-08-31T08:23:58.506Z,100635.88
2018-08-31T08:26:29.477Z,100632.61
2018-08-31T08:29:00.512Z,100635.20
2018-08-31T08:31:31.481Z,100625.64
2018-08-31T08:34:03.222Z,100628.58
2018-08-31T08:36:34.366Z,100623.66
2018-08-31T08:39:06.682Z,100636.41
2018-08-31T08:41:37.537Z,100633.41
2018-08-31T08:44:09.332Z,100635.45
2018-08-31T08:46:40.536Z,100636.15
2018-08-31T08:49:11.518Z,100641.88
2018-08-31T08:51:42.512Z,100637.63
2018-08-31T08:54:13.517Z,100642.02
2018-08-31T08:56:44.460Z,100645.87
2018-08-31T08:59:15.452Z,100645.26
2018-08-31T09:01:46.435Z,100637.23
2018-08-31T09:04:17.503Z,100632.03
2018-08-31T09:06:48.489Z,100643.08
2018-08-31T09:09:19.512Z,100645.10
2018-08-31T09:11:50.500Z,100643.89
2018-08-31T09:14:21.490Z,100644.88
2018-08-31T09:16:52.505Z,100640.59
2018-08-31T09:19:23.502Z,100638.39
2018-08-31T09:21:54.500Z,100636.27
2018-08-31T09:24:25.516Z,100632.23
2018-08-31T09:26:56.477Z,100634.15
2018-08-31T09:29:27.481Z,100635.14
2018-08-31T09:31:58.473Z,100628.98
2018-08-31T09:34:29.542Z,100633.40
2018-08-31T09:37:00.491Z,100635.91
2018-08-31T09:39:31.498Z,100636.13
2018-08-31T09:42:02.506Z,100622.34
2018-08-31T09:44:33.513Z,100624.00
2018-08-31T09:47:04.502Z,100628.08
2018-08-31T09:49:35.527Z,100627.16
2018-08-31T09:52:06.522Z,100623.86
2018-08-31T09:54:37.527Z,100623.27
2018-08-31T09:57:08.688Z,100621.10
2018-08-31T09:59:41.313Z,100615.05
2018-08-31T10:02:16.229Z,100609.71
2018-08-31T10:04:47.809Z,100612.42
2018-08-31T10:07:18.569Z,100612.52
2018-08-31T10:22:33.519Z,100614.47
2018-08-31T10:25:04.508Z,100600.44
2018-08-31T10:27:35.472Z,100600.22
2018-08-31T10:30:07.372Z,100598.23
2018-08-31T10:32:38.689Z,100595.17
2018-08-31T10:35:09.607Z,100596.83
2018-08-31T10:37:40.545Z,100596.76
2018-08-31T10:40:11.479Z,100592.63
2018-08-31T10:42:42.574Z,100596.86
2018-08-31T10:45:13.522Z,100594.94
2018-08-31T10:47:44.499Z,100589.77
2018-08-31T10:50:15.513Z,100591.06
2018-08-31T10:52:46.510Z,100583.02
2018-08-31T10:55:17.518Z,100590.25
2018-08-31T10:57:48.518Z,100586.66
2018-08-31T11:00:19.542Z,100586.00
2018-08-31T11:02:50.490Z,100582.11
2018-08-31T11:05:21.522Z,100578.00
2018-08-31T11:07:52.498Z,100580.95
2018-08-31T11:10:23.481Z,100578.66
2018-08-31T11:12:54.585Z,100569.17
2018-08-31T11:15:25.517Z,100561.31
2018-08-31T11:17:56.568Z,100556.88
2018-08-31T11:20:28.453Z,100560.98
2018-08-31T11:22:59.556Z,100559.80
2018-08-31T11:25:30.542Z,100553.04
2018-08-31T11:28:01.522Z,100562.00
2018-08-31T11:30:32.550Z,100558.90
2018-08-31T11:33:03.498Z,100559.58
2018-08-31T11:35:34.516Z,100551.99
2018-08-31T11:38:05.507Z,100555.42
2018-08-31T11:40:36.504Z,100546.18
2018-08-31T11:43:07.819Z,100547.53
2018-08-31T11:45:38.644Z,100550.14
2018-08-31T11:48:09.566Z,100546.73
2018-08-31T11:50:40.530Z,100550.56
2018-08-31T11:53:11.523Z,100549.13
2018-08-31T11:55:42.518Z,100543.29
2018-08-31T11:58:13.534Z,100542.41
2018-08-31T12:00:44.579Z,100545.91
2018-08-31T12:03:15.523Z,100543.22
2018-08-31T12:05:46.513Z,100551.17
2018-08-31T12:08:17.517Z,100548.22
2018-08-31T12:10:48.522Z,100547.25
2018-08-31T12:13:19.489Z,100546.55
2018-08-31T12:15:50.542Z,100538.00
2018-08-31T12:18:21.523Z,100540.86
2018-08-31T12:20:52.529Z,100547.27
2018-08-31T12:23:23.517Z,100542.42
2018-08-31T12:25:54.575Z,100542.55
2018-08-31T12:28:25.581Z,100546.76
2018-08-31T12:33:43.022Z,100535.94
2018-08-31T12:36:14.393Z,100530.38
2018-08-31T12:38:45.625Z,100540.44
2018-08-31T12:41:16.526Z,100533.64
2018-08-31T12:43:47.623Z,100526.02
2018-08-31T12:46:18.537Z,100532.19
2018-08-31T12:48:49.542Z,100537.84
2018-08-31T12:51:20.529Z,100534.34
2018-08-31T12:53:51.574Z,100536.72
2018-08-31T12:56:22.535Z,100536.41
2018-08-31T12:58:53.518Z,100540.87
2018-08-31T13:01:24.533Z,100532.66
2018-08-31T13:03:55.525Z,100536.49
2018-08-31T13:06:26.526Z,100533.32
2018-08-31T13:08:57.578Z,100534.11
2018-08-31T13:11:28.553Z,100527.97
2018-08-31T13:13:59.507Z,100522.88
2018-08-31T13:16:30.513Z,100515.67
2018-08-31T13:19:01.551Z,100518.23
2018-08-31T13:21:32.549Z,100519.08
2018-08-31T13:24:03.509Z,100521.66
2018-08-31T13:26:34.538Z,100516.31
2018-08-31T13:29:05.535Z,100517.59
2018-08-31T13:31:36.517Z,100522.41
2018-08-31T13:34:07.531Z,100515.94
2018-08-31T13:36:38.517Z,100514.52
2018-08-31T13:39:10.507Z,100512.42
2018-08-31T13:41:41.514Z,100527.85
2018-08-31T13:44:12.506Z,100521.97
2018-08-31T13:46:43.538Z,100522.59
2018-08-31T13:49:14.584Z,100519.97
2018-08-31T13:51:45.591Z,100521.08
2018-08-31T13:54:16.526Z,100517.70
2018-08-31T13:56:47.503Z,100520.33
2018-08-31T13:59:18.525Z,100516.48
2018-08-31T14:01:49.595Z,100514.64
2018-08-31T14:04:20.541Z,100508.61
2018-08-31T14:06:51.542Z,100506.95
2018-08-31T14:09:22.511Z,100503.49
2018-08-31T14:11:53.719Z,100496.39
2018-08-31T14:14:24.573Z,100505.17
2018-08-31T14:16:55.496Z,100509.66
2018-08-31T14:19:26.770Z,100504.42
2018-08-31T14:21:57.583Z,100510.44
2018-08-31T14:24:28.544Z,100505.72
2018-08-31T14:26:59.519Z,100510.88
2018-08-31T14:29:30.527Z,100513.17
2018-08-31T14:32:01.533Z,100514.03
2018-08-31T14:34:32.493Z,100511.00
2018-08-31T14:37:03.521Z,100507.16
2018-08-31T14:39:34.484Z,100505.89
2018-08-31T14:42:05.565Z,100500.15
2018-08-31T14:44:36.528Z,100505.51
2018-08-31T14:47:07.489Z,100501.17
2018-08-31T14:49:38.523Z,100504.45
2018-08-31T14:52:09.533Z,100504.42
2018-08-31T14:54:43.271Z,100498.05
2018-08-31T14:57:15.667Z,100498.80
2018-08-31T14:59:59.761Z,100494.13
2018-08-31T15:02:31.021Z,100493.81
2018-08-31T15:05:02.384Z,100493.89
2018-08-31T15:07:33.558Z,100489.64
2018-08-31T15:10:04.550Z,100494.41
2018-08-31T15:12:35.723Z,100487.44
2018-08-31T15:15:06.765Z,100492.33
2018-08-31T15:17:37.608Z,100487.35
2018-08-31T15:20:08.713Z,100495.76
2018-08-31T15:22:39.844Z,100492.55
2018-08-31T15:25:11.310Z,100490.76
2018-08-31T15:27:42.477Z,100502.08
2018-08-31T15:30:13.531Z,100498.41
2018-08-31T15:32:44.665Z,100504.70
2018-08-31T15:35:15.566Z,100496.95
2018-08-31T15:37:46.509Z,100503.93
2018-08-31T15:40:17.494Z,100501.00
2018-08-31T15:42:48.537Z,100500.52
2018-08-31T15:45:19.494Z,100497.96
2018-08-31T15:47:50.641Z,100497.97
2018-08-31T15:50:22.201Z,100500.83
2018-08-31T15:52:53.369Z,100499.97
2018-08-31T15:55:24.397Z,100496.30
2018-08-31T15:57:55.533Z,100499.73
2018-08-31T16:00:26.512Z,100496.70
2018-08-31T16:02:57.538Z,100497.41
2018-08-31T16:05:28.483Z,100500.16
2018-08-31T16:07:59.546Z,100500.84
2018-08-31T16:10:30.505Z,100501.05
2018-08-31T16:13:01.533Z,100501.15
2018-08-31T16:15:32.629Z,100502.34
2018-08-31T16:18:03.596Z,100506.67
2018-08-31T16:20:34.599Z,100516.64
2018-08-31T16:23:05.564Z,100514.23
2018-08-31T16:25:36.750Z,100510.25
2018-08-31T16:28:07.681Z,100514.39
2018-08-31T16:30:39.562Z,100510.19
2018-08-31T16:33:10.535Z,100513.14
2018-08-31T16:35:41.505Z,100512.00
2018-08-31T16:38:12.528Z,100515.75
2018-08-31T16:40:43.541Z,100522.62
2018-08-31T16:43:14.535Z,100516.59
2018-08-31T16:45:45.503Z,100519.73
2018-08-31T16:48:16.489Z,100522.58
2018-08-31T16:50:47.529Z,100523.38
2018-08-31T16:53:18.621Z,100521.34
2018-08-31T16:55:49.481Z,100522.78
2018-08-31T16:58:20.553Z,100530.38
2018-08-31T17:00:52.274Z,100524.08
2018-08-31T17:03:22.504Z,100527.16
2018-08-31T17:05:54.323Z,100536.92
2018-08-31T17:08:25.429Z,100532.46
2018-08-31T17:10:56.562Z,100532.81
2018-08-31T17:13:27.524Z,100539.66
2018-08-31T17:15:58.601Z,100540.89
2018-08-31T17:20:38.587Z,100544.00
2018-08-31T17:23:09.552Z,100542.66
2018-08-31T17:25:40.565Z,100544.17
2018-08-31T17:28:16.710Z,100546.88
2018-08-31T17:30:47.592Z,100549.20
2018-08-31T17:33:23.583Z,100553.93
2018-08-31T17:35:59.576Z,100546.67
2018-08-31T17:38:30.762Z,100552.58
2018-08-31T17:41:01.722Z,100558.69
2018-08-31T17:43:32.576Z,100564.49
2018-08-31T17:46:03.564Z,100561.01
2018-08-31T17:48:34.521Z,100565.52
2018-08-31T17:51:05.520Z,100572.54
2018-08-31T17:53:36.508Z,100576.31
2018-08-31T17:56:07.501Z,100578.73
2018-08-31T17:58:38.615Z,100581.30
2018-08-31T18:01:09.900Z,100585.30
2018-08-31T18:03:41.369Z,100583.75
2018-08-31T18:06:12.546Z,100593.04
2018-08-31T18:08:43.493Z,100588.33
2018-08-31T18:11:14.519Z,100595.55
2018-08-31T18:13:45.525Z,100592.98
2018-08-31T18:16:16.556Z,100598.73
2018-08-31T18:18:47.610Z,100600.61
2018-08-31T18:21:18.505Z,100602.66
2018-08-31T18:23:49.493Z,100607.34
2018-08-31T18:26:20.504Z,100609.55
2018-08-31T18:28:51.506Z,100609.77
2018-08-31T18:31:22.505Z,100609.63
2018-08-31T18:33:53.581Z,100614.32
2018-08-31T18:36:24.517Z,100620.78
2018-08-31T18:38:55.494Z,100625.59
2018-08-31T18:41:26.550Z,100632.73
2018-08-31T18:43:57.571Z,100635.32
2018-08-31T18:46:28.550Z,100640.37
2018-08-31T18:48:59.551Z,100638.01
2018-08-31T18:51:30.485Z,100640.86
2018-08-31T18:54:01.465Z,100647.42
2018-08-31T18:56:32.510Z,100653.13
2018-08-31T18:59:03.509Z,100654.97
2018-08-31T19:01:34.687Z,100656.82
2018-08-31T19:04:05.573Z,100658.83
2018-08-31T19:06:36.505Z,100656.16
2018-08-31T19:09:09.376Z,100660.83
2018-08-31T19:11:40.489Z,100670.05
2018-08-31T19:14:11.555Z,100669.21
2018-08-31T19:16:42.499Z,100672.22
2018-08-31T19:19:13.542Z,100678.59
2018-08-31T19:21:44.531Z,100680.92
2018-08-31T19:24:15.515Z,100676.72
2018-08-31T19:26:46.547Z,100680.90
2018-08-31T19:29:17.505Z,100686.57
2018-08-31T19:31:48.524Z,100695.96
2018-08-31T19:34:19.468Z,100697.39
2018-08-31T19:36:50.501Z,100699.88
2018-08-31T19:39:21.481Z,100700.73
2018-08-31T19:41:52.690Z,100698.52
2018-08-31T19:44:23.605Z,100701.84
2018-08-31T19:46:54.752Z,100706.00
2018-08-31T19:49:25.533Z,100704.53
2018-08-31T19:51:56.521Z,100701.83
2018-08-31T19:54:27.581Z,100702.83
2018-08-31T19:56:58.619Z,100706.66
2018-08-31T19:59:29.560Z,100710.98
2018-08-31T20:02:00.482Z,100710.45
2018-08-31T20:04:31.489Z,100708.73
2018-08-31T20:07:02.493Z,100718.47
2018-08-31T20:09:33.483Z,100720.11
2018-08-31T20:12:04.513Z,100721.42
2018-08-31T20:14:35.509Z,100720.25
2018-08-31T20:17:06.490Z,100724.91
2018-08-31T20:19:37.570Z,100728.02
2018-08-31T20:22:12.629Z,100726.88
2018-08-31T20:24:43.571Z,100727.72
2018-08-31T20:27:14.513Z,100726.66
2018-08-31T20:29:45.488Z,100729.88
2018-08-31T20:32:16.510Z,100729.88
2018-08-31T20:34:47.535Z,100729.84
2018-08-31T20:37:18.514Z,100732.95
2018-08-31T20:39:49.517Z,100736.40
2018-08-31T20:42:20.497Z,100742.00
2018-08-31T20:44:57.295Z,100741.84
2018-08-31T20:47:28.376Z,100743.01
2018-08-31T20:49:59.513Z,100744.22
2018-08-31T20:52:30.535Z,100751.34
2018-08-31T20:55:01.559Z,100754.02
2018-08-31T20:57:32.500Z,100753.70
2018-08-31T21:00:03.505Z,100749.81
2018-08-31T21:02:34.484Z,100748.97
2018-08-31T21:05:05.547Z,100761.47
2018-08-31T21:07:36.633Z,100759.77
2018-08-31T21:10:08.288Z,100756.70
2018-08-31T21:12:39.389Z,100768.16
2018-08-31T21:15:10.537Z,100765.13
2018-08-31T21:17:41.485Z,100771.43
2018-08-31T21:20:12.514Z,100769.25
2018-08-31T21:22:43.680Z,100770.41
2018-08-31T21:25:14.665Z,100766.05
2018-08-31T21:27:45.579Z,100770.17
2018-08-31T21:30:16.547Z,100764.50
2018-08-31T21:32:47.493Z,100766.81
2018-08-31T21:35:18.530Z,100770.61
2018-08-31T21:37:49.512Z,100768.63
2018-08-31T21:40:20.485Z,100765.06
2018-08-31T21:42:51.481Z,100772.02
2018-08-31T21:45:23.002Z,100774.00
2018-08-31T21:47:54.306Z,100769.66
2018-08-31T21:50:25.370Z,100778.22
2018-08-31T21:52:56.738Z,100774.22
2018-08-31T21:55:27.596Z,100776.62
2018-08-31T21:57:58.481Z,100770.41
2018-08-31T22:00:29.469Z,100770.78
2018-08-31T22:03:00.518Z,100772.83
2018-08-31T22:05:31.479Z,100777.14
2018-08-31T22:08:02.488Z,100776.29
2018-08-31T22:10:33.513Z,100781.73
2018-08-31T22:13:04.477Z,100783.34
2018-08-31T22:15:35.510Z,100783.08
2018-08-31T22:18:06.521Z,100783.41
2018-08-31T22:20:37.510Z,100780.53
2018-08-31T22:23:08.466Z,100786.41
2018-08-31T22:25:39.518Z,100786.59
2018-08-31T22:28:10.588Z,100786.53
2018-08-31T22:30:41.485Z,100780.03
2018-08-31T22:33:12.611Z,100776.12
2018-08-31T22:35:43.557Z,100783.72
2018-08-31T22:38:14.498Z,100779.27
2018-08-31T22:40:45.515Z,100780.51
2018-08-31T22:43:16.511Z,100783.20
2018-08-31T22:45:47.501Z,100783.59
2018-08-31T22:48:18.498Z,100779.54
2018-08-31T22:50:49.488Z,100781.56
2018-08-31T22:53:20.524Z,100781.56
2018-08-31T22:55:51.475Z,100783.50
2018-08-31T22:58:22.485Z,100785.87
2018-08-31T23:00:53.523Z,100787.38
2018-08-31T23:03:24.511Z,100787.52
2018-08-31T23:05:55.485Z,100788.30
2018-08-31T23:08:26.522Z,100785.16
2018-08-31T23:10:57.498Z,100781.24
2018-08-31T23:13:28.478Z,100787.54
2018-08-31T23:15:59.486Z,100779.44
2018-08-31T23:18:30.516Z,100788.80
2018-08-31T23:21:01.502Z,100783.08
2018-08-31T23:23:37.682Z,100783.52
2018-08-31T23:26:08.548Z,100782.82
2018-08-31T23:28:39.490Z,100773.34
2018-08-31T23:31:10.473Z,100778.80
2018-08-31T23:33:41.568Z,100773.54
2018-08-31T23:36:12.474Z,100774.80
2018-08-31T23:38:43.506Z,100779.43
2018-08-31T23:41:14.441Z,100778.31
2018-08-31T23:43:45.444Z,100775.73
2018-08-31T23:46:16.417Z,100784.61
2018-08-31T23:48:47.465Z,100786.09
2018-08-31T23:51:18.441Z,100780.98
2018-08-31T23:53:49.480Z,100787.42
2018-08-31T23:56:20.481Z,100791.70
2018-08-31T23:58:52.494Z,100789.04
